createdAt,value
2018-09-02T00:01:50.761Z,11.83
2018-09-02T00:04:19.378Z,6.13
2018-09-02T00:06:47.996Z,7.37
2018-09-02T00:09:16.632Z,10.67
2018-09-02T00:11:45.269Z,9.70
2018-09-02T00:14:13.857Z,9.03
2018-09-02T00:16:42.900Z,10.27
2018-09-02T00:19:11.614Z,8.67
2018-09-02T00:21:40.293Z,12.67
2018-09-02T00:24:08.917Z,14.60
2018-09-02T00:26:37.522Z,12.83
2018-09-02T00:29:06.152Z,13.87
2018-09-02T00:31:35.566Z,13.17
2018-09-02T00:34:05.325Z,11.57
2018-09-02T00:36:33.968Z,9.80
2018-09-02T00:39:02.735Z,12.07
2018-09-02T00:41:31.481Z,8.93
2018-09-02T00:44:00.339Z,10.83
2018-09-02T00:46:29.095Z,16.27
2018-09-02T00:48:58.055Z,13.00
2018-09-02T00:51:26.667Z,13.90
2018-09-02T00:53:55.422Z,11.37
2018-09-02T00:56:24.707Z,13.13
2018-09-02T00:58:53.359Z,15.53
2018-09-02T01:01:22.211Z,17.60
2018-09-02T01:03:50.885Z,12.27
2018-09-02T01:06:19.687Z,11.17
2018-09-02T01:08:48.504Z,12.90
2018-09-02T01:11:17.223Z,13.63
2018-09-02T01:13:45.838Z,11.50
2018-09-02T01:16:14.535Z,15.73
2018-09-02T01:18:43.201Z,14.23
2018-09-02T01:21:11.888Z,11.93
2018-09-02T01:23:40.775Z,11.50
2018-09-02T01:26:09.375Z,14.13
2018-09-02T01:28:38.049Z,12.23
2018-09-02T01:31:07.118Z,12.27
2018-09-02T01:33:35.810Z,13.60
2018-09-02T01:36:04.678Z,17.47
2018-09-02T01:38:33.384Z,15.60
2018-09-02T01:41:02.935Z,17.43
2018-09-02T01:43:31.669Z,15.03
2018-09-02T01:46:00.291Z,14.07
2018-09-02T01:48:29.276Z,15.93
2018-09-02T01:50:57.909Z,18.37
2018-09-02T01:53:27.045Z,18.83
2018-09-02T01:55:56.049Z,17.10
2018-09-02T01:58:24.690Z,14.17
2018-09-02T02:00:53.546Z,19.40
2018-09-02T02:03:22.947Z,12.53
2018-09-02T02:05:51.834Z,19.13
2018-09-02T02:08:21.628Z,18.90
2018-09-02T02:10:50.255Z,21.77
2018-09-02T02:13:19.301Z,22.40
2018-09-02T02:15:47.960Z,17.30
2018-09-02T02:18:16.807Z,24.37
2018-09-02T02:20:45.449Z,19.33
2018-09-02T02:23:14.235Z,22.13
2018-09-02T02:25:43.035Z,24.70
2018-09-02T02:28:12.042Z,21.97
2018-09-02T02:30:41.041Z,22.93
2018-09-02T02:33:09.866Z,24.27
2018-09-02T02:35:39.735Z,24.27
2018-09-02T02:38:08.822Z,23.40
2018-09-02T02:40:37.598Z,24.70
2018-09-02T02:43:06.695Z,25.07
2018-09-02T02:45:35.409Z,28.03
2018-09-02T02:48:04.135Z,28.20
2018-09-02T02:50:32.947Z,25.43
2018-09-02T02:53:04.492Z,29.63
2018-09-02T02:55:34.523Z,30.37
2018-09-02T02:58:03.635Z,31.97
2018-09-02T03:00:33.382Z,29.50
2018-09-02T03:03:02.111Z,25.27
2018-09-02T03:05:31.115Z,29.53
2018-09-02T03:07:59.806Z,26.43
2018-09-02T03:10:28.421Z,29.43
2018-09-02T03:12:57.161Z,24.47
2018-09-02T03:15:26.061Z,26.90
2018-09-02T03:17:55.169Z,31.87
2018-09-02T03:20:23.920Z,24.90
2018-09-02T03:22:52.617Z,30.70
2018-09-02T03:25:21.326Z,25.60
2018-09-02T03:27:49.961Z,23.47
2018-09-02T03:30:18.607Z,30.40
2018-09-02T03:32:47.187Z,27.90
2018-09-02T03:35:15.866Z,24.13
2018-09-02T03:37:44.509Z,31.27
2018-09-02T03:40:13.158Z,26.80
2018-09-02T03:42:41.814Z,23.27
2018-09-02T03:45:10.636Z,29.83
2018-09-02T03:47:39.363Z,41.33
2018-09-02T03:50:08.052Z,30.70
2018-09-02T03:52:36.812Z,30.17
2018-09-02T03:55:05.645Z,35.10
2018-09-02T03:57:34.318Z,33.40
2018-09-02T04:00:03.031Z,36.87
2018-09-02T04:02:32.067Z,39.07
2018-09-02T04:05:00.819Z,38.13
2018-09-02T04:07:29.557Z,41.73
2018-09-02T04:09:59.028Z,40.33
2018-09-02T04:12:27.962Z,40.30
2018-09-02T04:14:56.700Z,36.10
2018-09-02T04:17:25.415Z,38.33
2018-09-02T04:19:54.031Z,39.77
2018-09-02T04:22:22.795Z,40.20
2018-09-02T04:24:51.722Z,41.43
2018-09-02T04:27:20.364Z,43.27
2018-09-02T04:29:49.116Z,38.43
2018-09-02T04:32:17.757Z,40.83
2018-09-02T04:34:46.458Z,40.90
2018-09-02T04:37:15.431Z,44.17
2018-09-02T04:39:44.025Z,39.63
2018-09-02T04:42:12.629Z,40.57
2018-09-02T04:44:41.403Z,45.30
2018-09-02T04:47:10.083Z,39.30
2018-09-02T04:49:38.716Z,38.17
2018-09-02T04:52:07.530Z,38.53
2018-09-02T04:54:36.164Z,44.33
2018-09-02T04:57:05.060Z,45.20
2018-09-02T04:59:33.643Z,45.63
2018-09-02T05:02:04.992Z,38.90
2018-09-02T05:04:33.653Z,39.50
2018-09-02T05:07:02.351Z,42.10
2018-09-02T05:09:31.241Z,43.70
2018-09-02T05:11:59.895Z,43.00
2018-09-02T05:14:28.503Z,46.27
2018-09-02T05:16:57.120Z,41.77
2018-09-02T05:19:25.772Z,44.73
2018-09-02T05:21:54.516Z,47.40
2018-09-02T05:24:23.168Z,42.57
2018-09-02T05:26:52.020Z,46.20
2018-09-02T05:29:20.672Z,44.63
2018-09-02T05:31:49.264Z,44.47
2018-09-02T05:34:17.898Z,45.23
2018-09-02T05:36:46.664Z,46.00
2018-09-02T05:39:15.440Z,45.43
2018-09-02T05:41:44.137Z,40.47
2018-09-02T05:44:13.017Z,42.23
2018-09-02T05:46:41.671Z,41.53
2018-09-02T05:49:10.284Z,38.63
2018-09-02T05:51:39.162Z,38.70
2018-09-02T05:54:07.783Z,40.67
2018-09-02T05:56:36.444Z,37.57
2018-09-02T05:59:05.236Z,41.67
2018-09-02T06:01:33.893Z,37.20
2018-09-02T06:04:02.494Z,34.27
2018-09-02T06:06:31.205Z,30.23
2018-09-02T06:09:00.003Z,31.93
2018-09-02T06:11:28.689Z,29.73
2018-09-02T06:13:57.405Z,30.07
2018-09-02T06:16:26.057Z,30.97
2018-09-02T06:18:54.674Z,28.87
2018-09-02T06:21:23.261Z,31.37
2018-09-02T06:23:52.040Z,30.00
2018-09-02T06:26:20.612Z,31.10
2018-09-02T06:28:49.225Z,29.23
2018-09-02T06:31:18.072Z,27.70
2018-09-02T06:33:46.689Z,28.27
2018-09-02T06:36:15.315Z,26.73
2018-09-02T06:38:44.150Z,24.97
2018-09-02T06:41:12.999Z,25.90
2018-09-02T06:43:41.941Z,24.20
2018-09-02T06:46:10.832Z,24.13
2018-09-02T06:48:39.644Z,25.63
2018-09-02T06:51:08.331Z,25.07
2018-09-02T06:53:37.005Z,25.57
2018-09-02T06:56:05.641Z,25.23
2018-09-02T06:58:34.449Z,22.13
2018-09-02T07:01:03.143Z,27.30
2018-09-02T07:03:31.785Z,26.33
2018-09-02T07:06:00.426Z,24.40
2018-09-02T07:08:29.052Z,23.60
2018-09-02T07:10:57.787Z,23.33
2018-09-02T07:13:26.445Z,24.70
2018-09-02T07:15:55.115Z,25.07
2018-09-02T07:18:23.788Z,22.67
2018-09-02T07:20:52.584Z,19.53
2018-09-02T07:23:21.598Z,18.40
2018-09-02T07:25:50.293Z,17.90
2018-09-02T07:28:19.439Z,21.90
2018-09-02T07:30:48.143Z,20.97
2018-09-02T07:33:17.137Z,19.67
2018-09-02T07:35:45.810Z,17.87
2018-09-02T07:38:14.513Z,16.50
2018-09-02T07:40:43.310Z,17.37
2018-09-02T07:43:11.958Z,16.07
2018-09-02T07:45:40.614Z,18.53
2018-09-02T07:48:09.323Z,18.17
2018-09-02T07:50:37.949Z,15.07
2018-09-02T07:53:06.591Z,14.37
2018-09-02T07:55:35.240Z,15.03
2018-09-02T07:58:04.092Z,13.47
2018-09-02T08:00:32.741Z,13.30
2018-09-02T08:03:01.640Z,14.57
2018-09-02T08:05:30.325Z,14.10
2018-09-02T08:07:58.974Z,14.07
2018-09-02T08:10:27.640Z,12.37
2018-09-02T08:12:56.420Z,12.03
2018-09-02T08:15:25.219Z,12.80
2018-09-02T08:17:53.817Z,10.93
2018-09-02T08:20:22.547Z,10.30
2018-09-02T08:22:51.274Z,10.77
2018-09-02T08:25:19.932Z,12.43
2018-09-02T08:27:50.044Z,9.67
2018-09-02T08:30:18.683Z,11.90
2018-09-02T08:32:47.834Z,8.43
2018-09-02T08:35:16.507Z,8.27
2018-09-02T08:37:45.420Z,10.97
2018-09-02T08:40:14.907Z,9.00
2018-09-02T08:42:43.551Z,9.57
2018-09-02T08:45:12.386Z,11.27
2018-09-02T08:47:41.031Z,9.97
2018-09-02T08:50:09.727Z,9.93
2018-09-02T08:52:38.411Z,7.43
2018-09-02T08:55:07.078Z,8.77
2018-09-02T08:57:35.759Z,8.47
2018-09-02T09:00:04.578Z,7.07
2018-09-02T09:02:33.243Z,6.37
2018-09-02T09:05:01.883Z,8.23
2018-09-02T09:07:31.846Z,8.37
2018-09-02T09:10:00.396Z,8.37
2018-09-02T09:12:29.118Z,8.10
2018-09-02T09:14:57.936Z,5.13
2018-09-02T09:17:26.607Z,7.50
2018-09-02T09:19:55.233Z,6.63
2018-09-02T09:22:23.874Z,7.20
2018-09-02T09:24:52.520Z,6.83
2018-09-02T09:27:21.159Z,8.23
2018-09-02T09:29:49.771Z,5.27
2018-09-02T09:32:18.465Z,5.10
2018-09-02T09:34:47.090Z,5.77
2018-09-02T09:37:15.707Z,5.30
2018-09-02T09:39:44.348Z,8.17
2018-09-02T09:42:13.005Z,7.50
2018-09-02T09:44:41.647Z,5.43
2018-09-02T09:47:10.329Z,5.93
2018-09-02T09:49:39.327Z,4.97
2018-09-02T09:52:08.096Z,4.00
2018-09-02T09:54:37.148Z,5.40
2018-09-02T09:57:05.813Z,4.93
2018-09-02T09:59:34.503Z,4.07
2018-09-02T10:02:03.368Z,4.50
2018-09-02T10:04:32.060Z,5.17
2018-09-02T10:07:00.703Z,4.70
2018-09-02T10:09:29.338Z,4.33
2018-09-02T10:11:57.959Z,7.30
2018-09-02T10:14:26.622Z,4.30
2018-09-02T10:16:55.271Z,4.57
2018-09-02T10:19:24.565Z,6.43
2018-09-02T10:21:53.217Z,3.60
2018-09-02T10:24:21.827Z,5.83
2018-09-02T10:26:50.513Z,3.77
2018-09-02T10:29:19.180Z,4.10
2018-09-02T10:31:47.833Z,3.97
2018-09-02T10:34:16.457Z,4.30
2018-09-02T10:36:45.159Z,3.50
2018-09-02T10:39:13.800Z,3.60
2018-09-02T10:41:42.498Z,5.00
2018-09-02T10:44:11.118Z,4.13
2018-09-02T10:46:39.750Z,5.17
2018-09-02T10:49:08.453Z,4.47
2018-09-02T10:51:37.122Z,3.93
2018-09-02T10:54:06.759Z,4.10
2018-09-02T10:56:35.400Z,3.33
2018-09-02T10:59:04.050Z,7.33
2018-09-02T11:01:32.763Z,5.47
2018-09-02T11:04:01.508Z,5.70
2018-09-02T11:06:30.169Z,5.17
2018-09-02T11:08:58.836Z,5.83
2018-09-02T11:11:27.566Z,5.70
2018-09-02T11:13:56.385Z,3.83
2018-09-02T11:16:25.017Z,4.47
2018-09-02T11:18:53.672Z,6.77
2018-09-02T11:21:22.285Z,6.53
2018-09-02T11:23:50.948Z,3.17
2018-09-02T11:26:19.569Z,3.73
2018-09-02T11:28:48.288Z,4.87
2018-09-02T11:31:16.927Z,4.13
2018-09-02T11:33:45.555Z,5.27
2018-09-02T11:36:14.194Z,3.50
2018-09-02T11:38:43.013Z,4.27
2018-09-02T11:41:12.007Z,5.23
2018-09-02T11:43:40.608Z,4.37
2018-09-02T11:46:09.222Z,4.93
2018-09-02T11:48:40.852Z,4.07
2018-09-02T11:51:09.509Z,3.90
2018-09-02T11:53:38.104Z,7.83
2018-09-02T11:56:06.788Z,6.73
2018-09-02T11:58:35.851Z,4.70
2018-09-02T12:01:04.528Z,4.10
2018-09-02T12:03:33.270Z,5.27
2018-09-02T12:06:01.958Z,5.43
2018-09-02T12:08:30.652Z,4.40
2018-09-02T12:10:59.276Z,3.93
2018-09-02T12:13:27.971Z,4.57
2018-09-02T12:15:56.602Z,5.90
2018-09-02T12:18:25.389Z,4.83
2018-09-02T12:20:54.096Z,4.17
2018-09-02T12:23:22.774Z,6.87
2018-09-02T12:25:51.449Z,5.37
2018-09-02T12:28:20.134Z,4.77
2018-09-02T12:30:48.785Z,3.43
2018-09-02T12:33:17.423Z,4.47
2018-09-02T12:35:46.111Z,3.50
2018-09-02T12:38:14.935Z,3.97
2018-09-02T12:40:43.868Z,4.23
2018-09-02T12:43:12.603Z,3.40
2018-09-02T12:45:41.395Z,5.73
2018-09-02T12:48:10.169Z,4.80
2018-09-02T12:50:38.803Z,4.43
2018-09-02T12:53:07.465Z,3.90
2018-09-02T12:55:36.214Z,3.73
2018-09-02T12:58:05.220Z,3.87
2018-09-02T13:00:34.705Z,5.00
2018-09-02T13:03:05.767Z,5.73
2018-09-02T13:05:34.415Z,5.00
2018-09-02T13:08:03.258Z,3.90
2018-09-02T13:10:32.012Z,4.90
2018-09-02T13:13:00.650Z,5.43
2018-09-02T13:15:29.344Z,3.73
2018-09-02T13:17:58.061Z,4.50
2018-09-02T13:20:26.760Z,4.97
2018-09-02T13:22:55.512Z,5.83
2018-09-02T13:25:24.285Z,3.73
2018-09-02T13:27:53.039Z,4.00
2018-09-02T13:30:21.768Z,3.40
2018-09-02T13:32:50.367Z,4.83
2018-09-02T13:35:19.041Z,3.00
2018-09-02T13:37:47.688Z,4.63
2018-09-02T13:40:16.535Z,4.30
2018-09-02T13:42:45.470Z,5.67
2018-09-02T13:45:14.185Z,4.27
2018-09-02T13:47:42.922Z,4.83
2018-09-02T13:50:11.671Z,3.80
2018-09-02T13:52:40.347Z,4.30
2018-09-02T13:55:08.973Z,3.97
2018-09-02T13:57:37.649Z,4.30
2018-09-02T14:00:06.808Z,4.50
2018-09-02T14:02:35.473Z,3.33
2018-09-02T14:05:04.203Z,4.17
2018-09-02T14:07:32.955Z,5.23
2018-09-02T14:10:01.616Z,3.10
2018-09-02T14:12:30.469Z,4.47
2018-09-02T14:14:59.277Z,4.47
2018-09-02T14:17:27.904Z,3.63
2018-09-02T14:19:56.884Z,4.77
2018-09-02T14:22:25.531Z,3.30
2018-09-02T14:24:54.130Z,5.80
2018-09-02T14:27:22.770Z,5.07
2018-09-02T14:29:51.518Z,3.67
2018-09-02T14:32:20.178Z,4.43
2018-09-02T14:34:48.915Z,5.23
2018-09-02T14:37:17.553Z,4.83
2018-09-02T14:39:46.431Z,4.00
2018-09-02T14:42:15.193Z,3.37
2018-09-02T14:44:43.859Z,5.03
2018-09-02T14:47:12.772Z,5.20
2018-09-02T14:49:41.444Z,4.10
2018-09-02T14:52:10.283Z,3.70
2018-09-02T14:54:39.136Z,4.03
2018-09-02T14:57:07.824Z,4.37
2018-09-02T14:59:36.643Z,3.70
2018-09-02T15:02:05.436Z,3.37
2018-09-02T15:04:34.077Z,3.83
2018-09-02T15:07:03.110Z,5.07
2018-09-02T15:09:31.832Z,3.23
2018-09-02T15:12:00.473Z,4.97
2018-09-02T15:14:29.128Z,4.10
2018-09-02T15:16:57.817Z,7.60
2018-09-02T15:19:26.445Z,2.97
2018-09-02T15:21:55.145Z,4.97
2018-09-02T15:24:23.799Z,3.10
2018-09-02T15:26:52.485Z,4.10
2018-09-02T15:29:21.260Z,3.90
2018-09-02T15:31:51.092Z,2.90
2018-09-02T15:34:19.983Z,3.90
2018-09-02T15:36:48.677Z,4.60
2018-09-02T15:39:17.396Z,4.50
2018-09-02T15:41:46.662Z,3.03
2018-09-02T15:44:15.519Z,6.53
2018-09-02T15:46:44.140Z,3.40
2018-09-02T15:49:12.915Z,5.10
2018-09-02T15:51:41.655Z,22.90
2018-09-02T15:54:10.295Z,21.60
2018-09-02T15:56:38.905Z,33.17
2018-09-02T15:59:07.700Z,12.87
2018-09-02T16:01:37.469Z,21.63
2018-09-02T16:04:06.131Z,51.07
2018-09-02T16:06:35.756Z,50.17
2018-09-02T16:09:06.818Z,7.53
2018-09-02T16:11:36.305Z,33.20
2018-09-02T16:14:07.389Z,17.63
2018-09-02T16:16:37.732Z,7.83
2018-09-02T16:19:07.512Z,6.70
2018-09-02T16:21:36.175Z,3.90
2018-09-02T16:24:05.855Z,4.90
2018-09-02T16:26:34.888Z,5.53
2018-09-02T16:29:04.369Z,4.93
2018-09-02T16:31:34.712Z,4.17
2018-09-02T16:34:04.285Z,5.13
2018-09-02T16:36:32.958Z,5.17
2018-09-02T16:39:01.684Z,3.47
2018-09-02T16:41:30.461Z,3.53
2018-09-02T16:43:59.402Z,4.20
2018-09-02T16:46:28.115Z,3.63
2018-09-02T16:48:56.818Z,6.67
2018-09-02T16:51:25.780Z,5.70
2018-09-02T16:53:54.476Z,6.03
2018-09-02T16:56:23.115Z,4.77
2018-09-02T16:58:51.794Z,3.47
2018-09-02T17:01:20.510Z,3.53
2018-09-02T17:04:07.850Z,5.20
2018-09-02T17:06:37.400Z,5.70
2018-09-02T17:09:09.392Z,5.03
2018-09-02T17:11:38.487Z,4.87
2018-09-02T17:14:07.522Z,4.17
2018-09-02T17:16:36.188Z,3.90
2018-09-02T17:19:08.221Z,6.17
2018-09-02T17:21:36.949Z,4.70
2018-09-02T17:24:05.663Z,3.47
2018-09-02T17:26:34.490Z,3.43
2018-09-02T17:29:03.124Z,9.90
2018-09-02T17:31:31.768Z,5.67
2018-09-02T17:34:00.467Z,5.40
2018-09-02T17:36:29.172Z,4.73
2018-09-02T17:38:58.104Z,3.50
2018-09-02T17:41:26.746Z,3.20
2018-09-02T17:43:55.505Z,5.00
2018-09-02T17:46:24.176Z,5.47
2018-09-02T17:48:52.790Z,3.80
2018-09-02T17:51:22.142Z,5.60
2018-09-02T17:53:50.833Z,4.57
2018-09-02T17:56:19.528Z,4.30
2018-09-02T17:58:48.296Z,5.67
2018-09-02T18:01:17.042Z,3.77
2018-09-02T18:03:45.816Z,5.07
2018-09-02T18:06:14.529Z,5.33
2018-09-02T18:08:43.802Z,9.20
2018-09-02T18:11:12.485Z,6.83
2018-09-02T18:13:41.123Z,4.23
2018-09-02T18:16:10.424Z,4.63
2018-09-02T18:18:40.067Z,4.00
2018-09-02T18:21:08.827Z,4.07
2018-09-02T18:23:37.617Z,5.83
2018-09-02T18:26:06.365Z,3.83
2018-09-02T18:28:37.770Z,5.70
2018-09-02T18:31:06.524Z,6.63
2018-09-02T18:33:35.207Z,6.77
2018-09-02T18:36:03.971Z,4.77
2018-09-02T18:38:32.605Z,4.67
2018-09-02T18:41:01.632Z,4.60
2018-09-02T18:43:30.310Z,4.47
2018-09-02T18:45:58.917Z,3.80
2018-09-02T18:48:27.584Z,3.73
2018-09-02T18:50:56.236Z,3.97
2018-09-02T18:53:25.102Z,3.57
2018-09-02T18:55:54.126Z,3.57
2018-09-02T18:58:22.829Z,5.57
2018-09-02T19:00:51.499Z,4.90
2018-09-02T19:03:20.250Z,4.53
2018-09-02T19:05:48.962Z,5.50
2018-09-02T19:08:17.703Z,4.93
2018-09-02T19:10:46.622Z,4.33
2018-09-02T19:13:15.293Z,5.10
2018-09-02T19:15:44.002Z,6.47
2018-09-02T19:18:12.858Z,4.10
2018-09-02T19:20:43.086Z,5.30
2018-09-02T19:23:11.818Z,6.57
2018-09-02T19:25:40.714Z,6.97
2018-09-02T19:28:09.372Z,8.20
2018-09-02T19:30:38.058Z,8.20
2018-09-02T19:33:06.973Z,7.53
2018-09-02T19:35:35.593Z,9.70
2018-09-02T19:38:04.468Z,8.00
2018-09-02T19:40:33.314Z,6.13
2018-09-02T19:43:02.075Z,6.27
2018-09-02T19:45:30.729Z,6.73
2018-09-02T19:47:59.614Z,5.73
2018-09-02T19:50:28.368Z,7.33
2018-09-02T19:52:57.204Z,6.60
2018-09-02T19:55:25.931Z,6.37
2018-09-02T19:57:54.740Z,5.40
2018-09-02T20:00:23.477Z,5.23
2018-09-02T20:02:52.227Z,6.03
2018-09-02T20:05:21.007Z,5.23
2018-09-02T20:07:49.668Z,5.70
2018-09-02T20:10:18.598Z,5.93
2018-09-02T20:12:47.682Z,6.50
2018-09-02T20:15:16.365Z,5.40
2018-09-02T20:17:45.220Z,7.30
2018-09-02T20:20:13.912Z,5.73
2018-09-02T20:22:42.639Z,4.83
2018-09-02T20:25:11.354Z,6.67
2018-09-02T20:27:39.980Z,5.97
2018-09-02T20:30:08.669Z,6.37
2018-09-02T20:32:37.439Z,4.97
2018-09-02T20:35:06.120Z,7.63
2018-09-02T20:37:34.796Z,6.23
2018-09-02T20:40:03.424Z,6.73
2018-09-02T20:42:32.046Z,7.90
2018-09-02T20:45:00.796Z,7.47
2018-09-02T20:47:29.567Z,7.20
2018-09-02T20:49:58.549Z,5.93
2018-09-02T20:52:27.246Z,8.53
2018-09-02T20:54:55.900Z,7.43
2018-09-02T20:57:24.624Z,7.27
2018-09-02T20:59:53.248Z,6.27
2018-09-02T21:02:22.064Z,5.47
2018-09-02T21:04:50.850Z,8.83
2018-09-02T21:07:19.523Z,6.73
2018-09-02T21:09:48.234Z,7.67
2018-09-02T21:12:16.838Z,6.70
2018-09-02T21:14:45.701Z,6.53
2018-09-02T21:17:14.300Z,5.90
2018-09-02T21:19:42.971Z,6.43
2018-09-02T21:22:11.608Z,6.87
2018-09-02T21:24:40.200Z,8.37
2018-09-02T21:27:08.866Z,6.47
2018-09-02T21:29:37.492Z,8.17
2018-09-02T21:32:06.413Z,8.53
2018-09-02T21:34:35.424Z,7.87
2018-09-02T21:37:04.050Z,5.87
2018-09-02T21:39:32.680Z,7.97
2018-09-02T21:42:02.896Z,6.90
2018-09-02T21:44:31.572Z,7.87
2018-09-02T21:47:03.253Z,8.20
2018-09-02T21:49:31.868Z,7.90
2018-09-02T21:52:00.643Z,8.57
2018-09-02T21:54:29.373Z,8.10
2018-09-02T21:56:59.219Z,6.67
2018-09-02T21:59:27.860Z,8.93
2018-09-02T22:01:56.608Z,9.53
2018-09-02T22:04:29.250Z,8.80
2018-09-02T22:06:57.941Z,9.67
2018-09-02T22:09:26.597Z,8.03
2018-09-02T22:11:55.204Z,10.33
2018-09-02T22:14:23.833Z,12.23
2018-09-02T22:16:52.783Z,8.93
2018-09-02T22:19:21.422Z,7.37
2018-09-02T22:21:50.053Z,7.70
2018-09-02T22:24:18.704Z,9.00
2018-09-02T22:26:47.346Z,8.10
2018-09-02T22:29:16.130Z,10.87
2018-09-02T22:31:45.332Z,11.00
2018-09-02T22:34:13.949Z,10.47
2018-09-02T22:36:42.550Z,9.50
2018-09-02T22:39:11.154Z,9.77
2018-09-02T22:41:40.215Z,8.43
2018-09-02T22:44:08.974Z,11.40
2018-09-02T22:46:37.616Z,9.30
2018-09-02T22:49:06.325Z,10.47
2018-09-02T22:51:35.367Z,10.20
2018-09-02T22:54:03.990Z,8.20
2018-09-02T22:56:34.772Z,8.97
2018-09-02T22:59:03.582Z,12.70
2018-09-02T23:01:32.443Z,12.97
2018-09-02T23:04:01.103Z,12.20
2018-09-02T23:06:29.922Z,10.47
2018-09-02T23:09:00.942Z,9.97
2018-09-02T23:11:29.574Z,9.67
2018-09-02T23:13:58.384Z,9.23
2018-09-02T23:16:27.048Z,11.37
2018-09-02T23:18:55.802Z,10.60
2018-09-02T23:21:24.576Z,10.67
2018-09-02T23:23:55.423Z,12.27
2018-09-02T23:26:24.072Z,10.57
2018-09-02T23:28:55.251Z,9.40
2018-09-02T23:31:23.909Z,11.17
2018-09-02T23:33:52.714Z,9.00
2018-09-02T23:36:21.809Z,10.13
2018-09-02T23:38:50.569Z,13.37
2018-09-02T23:41:19.178Z,10.83
2018-09-02T23:43:48.030Z,10.07
2018-09-02T23:46:16.650Z,11.20
2018-09-02T23:48:45.316Z,10.27
2018-09-02T23:51:14.149Z,11.47
2018-09-02T23:53:42.791Z,11.37
2018-09-02T23:56:13.852Z,14.93
2018-09-02T23:58:42.540Z,12.43
